Main page


Airports :

Le Havre, France

Le Havre – Octeville Airport

latitude: 49-31N, longitude: 000-04E, elevation: 100 m

Current weather observation

The report was made 16 minutes ago, at 17:30 UTC
Wind 17 kt from the North/Northeast
Temperature 5°C
Humidity 65%
Pressure 1029 hPa
Visibility 10 km or more
Few clouds at a height of 2900 ft

METAR: LFOH 201730Z AUTO 02017KT 9999 FEW029 05/M01 Q1029 NOSIG

Time: 18:46 (17:46 UTC)


The report was made 6 hours and 46 minutes ago, at 11:00 UTC
Forecast valid from 20 at 12 UTC to 21 at 12 UTC
Wind 20 kt from the North with gusts up to 30 kt
Visibility 10 km or more
Broken clouds at a height of 2000 ft
from 20 at 18 UTC to 20 at 21 UTC
Wind 10 kt from the North

TAF: LFOH 201100Z 2012/2112 01020G30KT 9999 BKN020 BECMG 2018/2021 01010KT

Weather observations and forecasts of more than 4000 airports (METAR and TAF reports).

The available stations are represented by yellow and red dots on the map.

Hover mouse over dot to see the name of the station.

Then click to see weather observations and forecasts.

To change the map : click on the green buttons with a black cross to zoom in, on the green button with a dash to zoom out, or on the green arrows for adjacent maps.